Wales, WI

2:05 PM CDT on May 06, 2015 (GMT -0500)
GENESEE | | Change Station
CLOSE
Current Station
Personal Weather Station
Location: GENESEE DEPOT, WI
Elevation: 931 ft
Nearby Weather Stations

Elev 931 ft 42.97 °N, 88.36 °W | Updated 5 seconds ago

Partly Cloudy
Partly Cloudy
70.2 °F
Feels Like 73 °F
N
1.0
Wind Variable Wind from NE
Gusts 4.0 mph

Today
High -- | Low -- °F
--% Chance of Precip.
Yesterday
High -- | Low -- °F
Precip. -- in
5:41 AM 7:59 PM
Waning Gibbous, 93% visible
Pressure 30.17 in
Visibility 10.0 miles
Clouds Scattered Clouds 7000 ft
Heat Index 73 °F
Dew Point 62 °F
Humidity 74%
Rainfall 0.10 in
Snow Depth Not available.
UV 5.5 out of 12
Pollen 6.10 out of 12
Air Quality Not available.
Flu Activity Local Activity
METAR KUES 061845Z 08006KT 10SM SCT070 17/12 A3017

More Conditions Fewer Conditions

Pressure 30.17 in
Visibility 10.0 miles
Clouds Scattered Clouds 7000 ft
Heat Index 73 °F
Dew Point 62 °F
Humidity 74%
Rainfall 0.10 in
Snow Depth Not available.
UV 5.5 out of 12
Pollen 6.10 out of 12
Air Quality Not available.
Flu Activity Local Activity
METAR KUES 061845Z 08006KT 10SM SCT070 17/12 A3017

More Conditions Fewer Conditions

10-Day Weather Forecast

Almanac

Astronomy

May. 06, 2015 Rise Set
Actual Time
Civil Twilight
Nautical Twilight
Astronomical Twilight
Moon
Length of Visible Light
Length of Day
Tomorrow will be .
, % of the Moon is Illuminated

Today's Extremes

State Highs State Lows

Community

WunderPhotos

Upload Photos

1,818,993 photos uploaded!

WunderBlogs® & News

Nearby

Air Quality

  Air Quality AQ Index Pollutant
Not available.

Snow Depth

Station Depth Elevation

Earthquake Activity

City Distance Mag. Time & Date
Minimum magnitude displayed is 2.5.

Coastal Water Temperatures

Place Temperature

Stations

Nearby Weather Stations

Station Location Temp. Windchill Dew Point Humidity Wind Precip. Elev Updated Type